createdAt,value
2022-08-12T00:00:50.658Z,2.35
2022-08-12T00:03:36.067Z,2.13
2022-08-12T00:06:22.425Z,2.55
2022-08-12T00:09:07.765Z,2.20
2022-08-12T00:11:54.104Z,2.10
2022-08-12T00:14:39.374Z,2.10
2022-08-12T00:17:26.181Z,2.13
2022-08-12T00:20:11.953Z,2.20
2022-08-12T00:22:59.809Z,2.50
2022-08-12T00:26:23.716Z,2.22
2022-08-12T00:29:09.419Z,2.30
2022-08-12T00:31:54.644Z,2.40
2022-08-12T00:34:39.820Z,3.03
2022-08-12T00:37:25.000Z,2.38
2022-08-12T00:40:12.001Z,2.17
2022-08-12T00:42:44.888Z,2.70
2022-08-12T00:45:12.749Z,2.80
2022-08-12T00:47:40.155Z,2.78
2022-08-12T00:50:07.597Z,2.55
2022-08-12T00:52:35.298Z,2.67
2022-08-12T00:55:04.553Z,2.88
2022-08-12T00:57:36.910Z,2.53
2022-08-12T01:00:10.953Z,2.92
2022-08-12T01:02:40.775Z,2.75
2022-08-12T01:05:32.062Z,2.40
2022-08-12T01:08:18.134Z,2.50
2022-08-12T01:11:05.327Z,2.22
2022-08-12T01:13:34.882Z,2.80
2022-08-12T01:16:07.607Z,2.35
2022-08-12T01:18:36.762Z,2.90
2022-08-12T01:21:09.270Z,2.78
2022-08-12T01:23:44.844Z,2.72
2022-08-12T01:26:23.595Z,2.72
2022-08-12T01:28:55.292Z,2.97
2022-08-12T01:31:23.749Z,2.53
2022-08-12T01:34:28.601Z,2.58
2022-08-12T01:37:00.798Z,2.72
2022-08-12T01:39:33.198Z,2.65
2022-08-12T01:42:09.023Z,2.50
2022-08-12T01:44:37.383Z,2.30
2022-08-12T01:47:33.021Z,2.53
2022-08-12T01:50:26.515Z,2.88
2022-08-12T01:53:14.964Z,3.38
2022-08-12T01:55:45.412Z,3.08
2022-08-12T01:58:21.151Z,3.17
2022-08-12T02:01:11.283Z,3.55
2022-08-12T02:04:25.402Z,2.70
2022-08-12T02:10:06.083Z,2.33
2022-08-12T02:13:00.987Z,2.70
2022-08-12T02:15:59.334Z,2.40
2022-08-12T02:18:51.181Z,2.88
2022-08-12T02:21:50.068Z,2.60
2022-08-12T02:24:23.904Z,2.65
2022-08-12T02:26:54.289Z,2.72
2022-08-12T02:29:21.054Z,2.70
2022-08-12T02:31:50.000Z,2.33
2022-08-12T02:34:17.675Z,2.80
2022-08-12T02:36:45.741Z,3.25
2022-08-12T02:39:16.070Z,2.72
2022-08-12T02:41:47.196Z,2.60
2022-08-12T02:44:17.256Z,2.75
2022-08-12T02:46:50.388Z,2.65
2022-08-12T02:49:29.896Z,2.90
2022-08-12T02:51:58.121Z,4.30
2022-08-12T02:54:25.307Z,3.10
2022-08-12T02:56:53.267Z,3.03
2022-08-12T02:59:23.726Z,3.00
2022-08-12T03:01:53.577Z,2.67
2022-08-12T03:04:43.935Z,3.40
2022-08-12T03:07:49.271Z,3.30
2022-08-12T03:10:17.980Z,3.22
2022-08-12T03:12:51.071Z,3.35
2022-08-12T03:15:23.855Z,3.00
2022-08-12T03:18:27.661Z,2.97
2022-08-12T03:20:51.740Z,3.35
2022-08-12T03:23:30.283Z,3.05
2022-08-12T03:26:00.682Z,2.72
2022-08-12T03:28:50.533Z,3.30
2022-08-12T03:31:30.839Z,3.47
2022-08-12T03:34:03.070Z,3.10
2022-08-12T03:36:35.453Z,2.90
2022-08-12T03:39:16.847Z,3.40
2022-08-12T03:42:22.616Z,3.10
2022-08-12T03:45:52.567Z,3.00
2022-08-12T03:48:38.489Z,2.97
2022-08-12T03:51:24.022Z,3.60
2022-08-12T03:54:11.296Z,3.50
2022-08-12T03:56:58.462Z,3.30
2022-08-12T03:59:43.961Z,3.47
2022-08-12T04:02:17.038Z,3.25
2022-08-12T04:04:45.598Z,3.53
2022-08-12T04:07:13.634Z,3.30
2022-08-12T04:09:42.734Z,3.65
2022-08-12T04:12:32.477Z,3.80
2022-08-12T04:15:00.676Z,3.70
2022-08-12T04:17:28.137Z,3.88
2022-08-12T04:19:58.458Z,3.60
2022-08-12T04:22:30.501Z,3.60
2022-08-12T04:25:02.544Z,3.80
2022-08-12T04:27:31.345Z,3.50
2022-08-12T04:30:30.486Z,3.47
2022-08-12T04:32:45.895Z,3.03
2022-08-12T04:35:12.733Z,3.63
2022-08-12T04:37:59.159Z,3.97
2022-08-12T04:40:28.953Z,3.25
2022-08-12T04:42:55.941Z,3.13
2022-08-12T04:45:25.030Z,3.90
2022-08-12T04:47:51.962Z,3.45
2022-08-12T04:50:35.203Z,3.60
2022-08-12T04:53:05.414Z,4.47
2022-08-12T04:55:34.474Z,3.42
2022-08-12T04:58:00.933Z,3.60
2022-08-12T05:00:27.636Z,4.10
2022-08-12T05:02:54.161Z,5.18
2022-08-12T05:05:23.992Z,4.38
2022-08-12T05:07:54.897Z,4.22
2022-08-12T05:10:33.370Z,4.78
2022-08-12T05:13:15.521Z,4.88
2022-08-12T05:16:05.219Z,4.45
2022-08-12T05:18:30.182Z,3.95
2022-08-12T05:20:58.987Z,4.57
2022-08-12T05:23:25.480Z,4.88
2022-08-12T05:25:56.334Z,4.80
2022-08-12T05:28:24.977Z,4.10
2022-08-12T05:30:51.752Z,4.22
2022-08-12T05:33:18.194Z,4.72
2022-08-12T05:35:50.110Z,4.53
2022-08-12T05:38:37.454Z,4.97
2022-08-12T05:41:06.379Z,4.60
2022-08-12T05:43:35.554Z,4.88
2022-08-12T05:46:02.332Z,4.97
2022-08-12T05:48:30.681Z,4.68
2022-08-12T05:50:57.596Z,4.75
2022-08-12T05:53:24.155Z,5.05
2022-08-12T05:55:54.876Z,4.97
2022-08-12T05:58:21.287Z,4.38
2022-08-12T06:00:47.956Z,5.35
2022-08-12T06:03:17.337Z,4.63
2022-08-12T06:05:54.915Z,4.35
2022-08-12T06:08:22.989Z,4.68
2022-08-12T06:10:50.261Z,5.60
2022-08-12T06:13:27.995Z,5.57
2022-08-12T06:16:07.205Z,5.03
2022-08-12T06:18:33.726Z,5.30
2022-08-12T06:21:01.696Z,5.13
2022-08-12T06:23:29.470Z,5.32
2022-08-12T06:25:56.544Z,5.10
2022-08-12T06:28:23.384Z,4.88
2022-08-12T06:31:08.623Z,5.20
2022-08-12T06:33:55.813Z,5.20
2022-08-12T06:36:29.582Z,5.63
2022-08-12T06:38:59.070Z,6.03
2022-08-12T06:42:05.173Z,5.40
2022-08-12T06:44:30.907Z,5.75
2022-08-12T06:46:58.671Z,5.57
2022-08-12T06:49:25.302Z,5.97
2022-08-12T06:51:56.619Z,5.68
2022-08-12T06:54:31.326Z,6.35
2022-08-12T07:02:22.895Z,6.20
2022-08-12T07:04:50.241Z,5.95
2022-08-12T07:07:43.971Z,5.88
2022-08-12T07:10:10.520Z,6.03
2022-08-12T07:12:37.307Z,5.50
2022-08-12T07:15:04.970Z,5.57
2022-08-12T07:17:37.751Z,6.47
2022-08-12T07:20:49.824Z,5.90
2022-08-12T07:23:06.803Z,6.43
2022-08-12T07:25:37.677Z,5.93
2022-08-12T07:28:23.659Z,5.38
2022-08-12T07:30:53.071Z,5.90
2022-08-12T07:33:22.435Z,6.40
2022-08-12T07:36:14.089Z,6.10
2022-08-12T07:38:47.982Z,5.60
2022-08-12T07:41:18.798Z,5.53
2022-08-12T07:43:59.058Z,5.82
2022-08-12T07:46:37.353Z,5.10
2022-08-12T07:49:07.183Z,5.28
2022-08-12T07:51:34.457Z,6.07
2022-08-12T07:54:03.012Z,5.68
2022-08-12T07:56:31.160Z,5.28
2022-08-12T07:58:59.158Z,5.70
2022-08-12T08:01:26.283Z,5.28
2022-08-12T08:04:26.179Z,5.50
2022-08-12T08:06:54.518Z,5.97
2022-08-12T08:09:23.488Z,5.78
2022-08-12T08:12:18.688Z,6.25
2022-08-12T08:14:47.228Z,5.75
2022-08-12T08:17:18.867Z,5.88
2022-08-12T08:20:03.497Z,6.47
2022-08-12T08:22:40.844Z,5.93
2022-08-12T08:25:34.447Z,5.68
2022-08-12T08:28:18.457Z,5.00
2022-08-12T08:30:47.929Z,5.43
2022-08-12T08:33:59.287Z,4.90
2022-08-12T08:36:16.386Z,4.75
2022-08-12T08:38:57.589Z,4.88
2022-08-12T08:42:18.108Z,4.93
2022-08-12T08:44:30.304Z,4.93
2022-08-12T08:46:58.811Z,5.05
2022-08-12T08:49:25.807Z,4.80
2022-08-12T08:51:52.772Z,4.93
2022-08-12T08:54:24.825Z,5.00
2022-08-12T08:56:56.597Z,4.88
2022-08-12T08:59:26.636Z,4.90
2022-08-12T09:01:54.171Z,4.50
2022-08-12T09:05:13.343Z,4.68
2022-08-12T09:07:17.814Z,4.40
2022-08-12T09:10:03.628Z,4.97
2022-08-12T09:13:00.847Z,4.97
2022-08-12T09:18:36.609Z,4.28
2022-08-12T09:21:06.356Z,4.32
2022-08-12T09:26:46.510Z,3.92
2022-08-12T09:29:20.573Z,4.05
2022-08-12T09:32:09.521Z,4.50
2022-08-12T09:34:43.210Z,3.78
2022-08-12T09:37:19.677Z,3.33
2022-08-12T09:40:05.933Z,4.35
2022-08-12T09:43:15.212Z,4.05
2022-08-12T09:46:06.087Z,3.50
2022-08-12T09:48:36.734Z,4.00
2022-08-12T09:51:17.123Z,3.03
2022-08-12T09:54:06.037Z,3.65
2022-08-12T09:57:01.894Z,3.42
2022-08-12T10:00:12.530Z,3.20
2022-08-12T10:02:44.430Z,2.92
2022-08-12T10:05:05.815Z,3.40
2022-08-12T10:07:39.889Z,3.10
2022-08-12T10:10:24.636Z,3.50
2022-08-12T10:13:14.052Z,3.58
2022-08-12T10:16:05.182Z,3.90
2022-08-12T10:18:35.320Z,3.33
2022-08-12T10:21:08.924Z,3.22
2022-08-12T10:23:39.804Z,3.20
2022-08-12T10:26:37.086Z,3.17
2022-08-12T10:30:37.984Z,3.42
2022-08-12T10:32:45.021Z,3.42
2022-08-12T10:35:14.950Z,3.42
2022-08-12T10:38:35.920Z,3.20
2022-08-12T10:40:58.327Z,3.15
2022-08-12T10:43:54.018Z,3.70
2022-08-12T10:46:22.505Z,3.35
2022-08-12T10:57:09.135Z,3.05
2022-08-12T11:00:35.676Z,3.17
2022-08-12T11:04:27.791Z,3.20
2022-08-12T11:08:46.380Z,3.08
2022-08-12T11:10:47.635Z,3.05
2022-08-12T11:13:14.766Z,2.60
2022-08-12T11:16:03.883Z,3.33
2022-08-12T11:18:44.876Z,2.63
2022-08-12T11:21:15.991Z,2.63
2022-08-12T11:23:43.101Z,2.58
2022-08-12T11:26:49.934Z,2.58
2022-08-12T11:29:22.691Z,2.65
2022-08-12T11:32:01.759Z,2.28
2022-08-12T11:50:36.002Z,2.67
2022-08-12T11:53:57.319Z,2.50
2022-08-12T11:56:12.675Z,2.60
2022-08-12T12:02:05.940Z,2.75
2022-08-12T12:04:32.942Z,2.33
2022-08-12T12:07:07.074Z,2.60
2022-08-12T12:09:52.051Z,2.13
2022-08-12T12:12:20.097Z,2.60
2022-08-12T12:14:56.818Z,2.50
2022-08-12T12:17:38.062Z,2.60
2022-08-12T12:20:10.587Z,2.60
2022-08-12T12:26:34.884Z,2.38
2022-08-12T12:36:54.755Z,2.55
2022-08-12T12:47:29.374Z,2.15
2022-08-12T12:50:01.762Z,2.17
2022-08-12T12:52:33.840Z,2.90
2022-08-12T12:55:02.619Z,2.42
2022-08-12T12:58:00.423Z,2.53
2022-08-12T13:00:30.697Z,2.20
2022-08-12T13:02:59.821Z,2.00
2022-08-12T13:05:42.164Z,2.30
2022-08-12T13:08:35.744Z,2.00
2022-08-12T13:11:07.550Z,2.25
2022-08-12T13:14:08.906Z,2.17
2022-08-12T13:16:30.483Z,2.22
2022-08-12T13:18:59.864Z,2.28
2022-08-12T13:21:36.782Z,2.22
2022-08-12T13:26:56.914Z,2.28
2022-08-12T13:29:23.577Z,2.33
2022-08-12T13:32:19.616Z,2.13
2022-08-12T13:34:43.027Z,2.70
2022-08-12T13:37:17.998Z,2.30
2022-08-12T13:39:44.665Z,2.45
2022-08-12T13:42:13.825Z,2.22
2022-08-12T13:44:41.905Z,2.25
2022-08-12T13:47:19.588Z,2.55
2022-08-12T13:50:20.050Z,2.20
2022-08-12T13:52:36.202Z,2.03
2022-08-12T15:30:00.707Z,3.45
2022-08-12T15:52:55.209Z,3.92
2022-08-12T15:55:24.728Z,4.85
2022-08-12T15:58:04.166Z,3.88
2022-08-12T16:01:06.832Z,2.83
2022-08-12T16:04:00.289Z,3.10
2022-08-12T16:06:50.967Z,3.45
2022-08-12T16:20:22.937Z,3.08
2022-08-12T16:26:05.801Z,2.67
2022-08-12T16:28:33.670Z,3.00
2022-08-12T16:31:01.941Z,2.80
2022-08-12T16:33:58.954Z,2.75
2022-08-12T16:36:35.256Z,2.70
2022-08-12T16:39:03.405Z,2.88
2022-08-12T16:41:38.183Z,2.90
2022-08-12T16:44:07.042Z,2.70
2022-08-12T16:46:36.300Z,2.70
2022-08-12T16:49:13.426Z,3.20
2022-08-12T16:51:46.361Z,3.00
2022-08-12T16:54:19.020Z,2.75
2022-08-12T16:56:57.455Z,2.65
2022-08-12T16:59:53.634Z,3.58
2022-08-12T17:02:31.951Z,2.85
2022-08-12T17:07:36.551Z,2.92
2022-08-12T17:10:07.305Z,2.83
2022-08-12T17:12:37.330Z,2.60
2022-08-12T17:15:25.706Z,2.60
2022-08-12T17:18:39.130Z,2.70
2022-08-12T17:20:49.148Z,2.70
2022-08-12T17:23:17.774Z,2.22
2022-08-12T17:26:07.312Z,2.38
2022-08-12T17:28:35.177Z,2.90
2022-08-12T17:31:02.069Z,2.35
2022-08-12T17:33:34.188Z,1.98
2022-08-12T17:36:05.797Z,2.47
2022-08-12T17:38:34.826Z,2.40
2022-08-12T17:41:22.226Z,2.20
2022-08-12T17:43:58.479Z,2.15
2022-08-12T17:46:32.190Z,2.00
2022-08-12T17:49:00.490Z,2.28
2022-08-12T17:51:34.609Z,1.92
2022-08-12T17:54:17.658Z,1.90
2022-08-12T17:57:16.125Z,1.90
2022-08-12T17:59:48.296Z,2.10
2022-08-12T18:02:17.909Z,2.10
2022-08-12T18:05:04.843Z,1.98
2022-08-12T18:07:35.725Z,2.33
2022-08-12T18:10:03.621Z,2.15
2022-08-12T18:12:50.884Z,2.22
2022-08-12T18:18:49.109Z,1.80
2022-08-12T18:21:15.813Z,2.22
2022-08-12T18:23:53.800Z,2.05
2022-08-12T18:26:27.199Z,2.20
2022-08-12T18:28:56.666Z,2.13
2022-08-12T18:31:44.174Z,1.95
2022-08-12T18:34:21.838Z,2.08
2022-08-12T18:36:54.081Z,2.00
2022-08-12T18:39:22.183Z,1.83
2022-08-12T18:41:49.914Z,1.90
2022-08-12T18:44:16.535Z,2.15
2022-08-12T18:46:55.808Z,1.98
2022-08-12T18:49:29.390Z,1.98
2022-08-12T18:52:02.286Z,1.92
2022-08-12T18:54:41.430Z,2.10
2022-08-12T18:57:45.920Z,1.98
2022-08-12T19:00:07.654Z,2.05
2022-08-12T19:02:40.654Z,2.05
2022-08-12T19:05:10.824Z,2.20
2022-08-12T19:10:25.176Z,2.38
2022-08-12T19:13:15.658Z,2.20
2022-08-12T19:15:49.517Z,2.42
2022-08-12T19:18:16.918Z,2.67
2022-08-12T19:20:44.043Z,2.80
2022-08-12T19:23:16.778Z,2.65
2022-08-12T19:25:59.395Z,2.33
2022-08-12T19:28:35.224Z,2.35
2022-08-12T19:31:58.422Z,2.72
2022-08-12T19:38:03.248Z,2.50
2022-08-12T19:40:31.330Z,2.83
2022-08-12T19:43:01.079Z,2.90
2022-08-12T19:45:43.587Z,2.63
2022-08-12T19:48:18.098Z,2.97
2022-08-12T19:50:50.149Z,2.22
2022-08-12T19:53:20.616Z,2.90
2022-08-12T19:56:21.077Z,2.60
2022-08-12T19:58:52.076Z,2.67
2022-08-12T20:01:21.563Z,2.83
2022-08-12T20:03:48.094Z,2.78
2022-08-12T20:10:07.062Z,2.83
2022-08-12T20:12:48.773Z,3.05
2022-08-12T20:15:59.945Z,4.20
2022-08-12T20:18:53.316Z,3.53
2022-08-12T20:21:16.158Z,3.22
2022-08-12T20:24:00.347Z,3.05
2022-08-12T20:26:28.079Z,3.33
2022-08-12T20:28:55.536Z,3.33
2022-08-12T20:31:22.077Z,2.83
2022-08-12T20:33:55.924Z,3.20
2022-08-12T20:36:42.375Z,3.70
2022-08-12T20:39:37.100Z,2.92
2022-08-12T20:42:07.451Z,3.47
2022-08-12T20:44:40.270Z,3.20
2022-08-12T20:47:19.739Z,3.05
2022-08-12T20:49:55.242Z,3.10
2022-08-12T20:52:30.210Z,3.60
2022-08-12T20:54:57.960Z,3.30
2022-08-12T20:57:38.339Z,3.17
2022-08-12T21:00:28.400Z,3.67
2022-08-12T21:03:15.231Z,3.40
2022-08-12T21:06:12.890Z,3.70
2022-08-12T21:08:40.957Z,3.38
2022-08-12T21:11:10.331Z,3.80
2022-08-12T21:13:38.830Z,3.60
2022-08-12T21:16:10.124Z,3.40
2022-08-12T21:18:38.024Z,3.80
2022-08-12T21:21:05.650Z,3.70
2022-08-12T21:23:37.365Z,3.40
2022-08-12T21:26:16.760Z,3.92
2022-08-12T21:28:56.588Z,4.35
2022-08-12T21:32:40.110Z,3.67
2022-08-12T21:34:17.875Z,3.50
2022-08-12T21:36:50.333Z,3.33
2022-08-12T21:39:27.832Z,3.45
2022-08-12T21:42:05.424Z,3.85
2022-08-12T21:45:46.181Z,3.95
2022-08-12T21:50:04.242Z,3.75
2022-08-12T21:52:40.390Z,3.50
2022-08-12T21:55:26.878Z,4.05
2022-08-12T21:58:02.888Z,3.97
2022-08-12T22:00:35.273Z,3.88
2022-08-12T22:04:04.447Z,4.00
2022-08-12T22:06:30.893Z,4.00
2022-08-12T22:09:15.666Z,4.00
2022-08-12T22:11:49.272Z,3.95
2022-08-12T22:14:24.104Z,3.70
2022-08-12T22:17:00.396Z,3.80
2022-08-12T22:19:27.340Z,4.55
2022-08-12T22:21:55.661Z,4.30
2022-08-12T22:24:26.811Z,4.15
2022-08-12T22:27:18.017Z,3.75
2022-08-12T22:30:16.565Z,3.95
2022-08-12T22:32:51.325Z,4.43
2022-08-12T22:35:55.416Z,4.03
2022-08-12T22:38:20.221Z,3.85
2022-08-12T22:40:52.695Z,4.20
2022-08-12T22:44:00.422Z,3.92
2022-08-12T22:46:43.105Z,4.13
2022-08-12T22:49:36.435Z,3.85
2022-08-12T22:52:11.358Z,4.18
2022-08-12T22:54:59.911Z,4.10
2022-08-12T22:57:54.970Z,4.55
2022-08-12T23:00:24.271Z,4.72
2022-08-12T23:02:59.389Z,4.47
2022-08-12T23:06:05.428Z,4.15
2022-08-12T23:08:32.031Z,4.15
2022-08-12T23:11:00.265Z,3.88
2022-08-12T23:13:45.443Z,4.13
2022-08-12T23:16:29.422Z,3.80
2022-08-12T23:19:10.455Z,4.05
2022-08-12T23:22:06.018Z,4.15
2022-08-12T23:24:55.696Z,4.30
2022-08-12T23:27:50.770Z,4.40
2022-08-12T23:30:32.506Z,4.00
2022-08-12T23:33:02.810Z,4.05
2022-08-12T23:36:03.545Z,4.55
2022-08-12T23:38:32.701Z,4.47
2022-08-12T23:41:02.256Z,4.70
2022-08-12T23:43:39.368Z,4.75
2022-08-12T23:46:09.970Z,4.18
2022-08-12T23:48:37.818Z,4.22
2022-08-12T23:51:22.549Z,4.60
2022-08-12T23:53:56.110Z,4.40
2022-08-12T23:56:25.350Z,4.40
2022-08-12T23:58:55.324Z,4.15
